Aviation Digital Data Service (ADDS)

Output produced by METARs form (0513 UTC 21 January 2019)
found at http://www.aviationweather.gov/metar/data/
 
Forecast for: LERS (REUS (CIV/MIL) , ES)
Text: TAF LERS 210200Z 2103/2203 VRB03KT 9999 SCT040 TX14/2113Z TN00/2106Z
Forecast period: 0300 UTC 21 January 2019 to 0300 UTC 22 January 2019
Forecast type: FROM: standard forecast or significant change
Winds: variable direction winds at 3 MPH (3 knots; 1.5 m/s)
Visibility: 6 or more miles 10+ km)
Ceiling: at least 12,000 feet AGL
Clouds: scattered clouds at 4000 feet AGL
Weather: no significant weather forecast for this period
Text: TEMPO 2103/2107 29010KT
Forecast period: 0300 to 0700 UTC 21 January 2019
Forecast type: TEMPORARY: The following changes expected for less than half the time period
Winds: from the WNW (290 degrees) at 12 MPH (10 knots; 5.1 m/s)
Visibility: missing
Ceiling: unknown
Clouds: missing
Weather: no significant weather forecast for this period
Text: TEMPO 2111/2119 27010KT
Forecast period: 1100 to 1900 UTC 21 January 2019
Forecast type: TEMPORARY: The following changes expected for less than half the time period
Winds: from the W (270 degrees) at 12 MPH (10 knots; 5.1 m/s)
Visibility: missing
Ceiling: unknown
Clouds: missing
Weather: no significant weather forecast for this period